createdAt,value
2019-04-30T00:00:38.354Z,10.00
2019-04-30T00:03:25.046Z,9.90
2019-04-30T00:05:57.275Z,9.90
2019-04-30T00:08:25.596Z,9.90
2019-04-30T00:10:55.513Z,9.90
2019-04-30T00:13:26.329Z,9.90
2019-04-30T00:15:58.750Z,9.90
2019-04-30T00:18:25.470Z,9.90
2019-04-30T00:20:55.318Z,9.90
2019-04-30T00:23:27.251Z,9.90
2019-04-30T00:25:58.399Z,9.80
2019-04-30T00:28:25.527Z,9.80
2019-04-30T00:30:56.261Z,9.80
2019-04-30T00:33:27.474Z,9.80
2019-04-30T00:35:56.840Z,9.90
2019-04-30T00:38:25.254Z,10.00
2019-04-30T00:40:55.770Z,9.90
2019-04-30T00:43:25.236Z,10.00
2019-04-30T00:45:55.122Z,10.00
2019-04-30T00:48:29.019Z,10.10
2019-04-30T00:50:55.636Z,10.10
2019-04-30T00:53:23.634Z,10.20
2019-04-30T00:55:51.898Z,10.20
2019-04-30T00:58:28.516Z,10.30
2019-04-30T01:00:59.708Z,10.20
2019-04-30T01:03:30.464Z,10.20
2019-04-30T01:05:58.737Z,10.20
2019-04-30T01:08:28.441Z,10.20
2019-04-30T01:10:59.828Z,10.10
2019-04-30T01:13:29.036Z,10.10
2019-04-30T01:15:58.793Z,10.10
2019-04-30T01:18:28.588Z,10.20
2019-04-30T01:20:58.645Z,10.20
2019-04-30T01:23:29.515Z,10.20
2019-04-30T01:25:58.646Z,10.10
2019-04-30T01:28:28.411Z,10.20
2019-04-30T01:31:01.750Z,10.20
2019-04-30T01:33:34.381Z,10.20
2019-04-30T01:35:59.690Z,10.20
2019-04-30T01:38:28.731Z,10.20
2019-04-30T01:40:59.493Z,10.20
2019-04-30T01:43:31.440Z,10.20
2019-04-30T01:46:01.757Z,10.20
2019-04-30T01:48:29.257Z,10.30
2019-04-30T01:50:58.663Z,10.30
2019-04-30T01:53:28.569Z,10.20
2019-04-30T01:56:25.239Z,10.30
2019-04-30T01:58:56.685Z,10.30
2019-04-30T02:01:26.341Z,10.20
2019-04-30T02:03:54.673Z,10.20
2019-04-30T02:06:23.035Z,10.10
2019-04-30T02:08:51.390Z,10.20
2019-04-30T02:11:19.831Z,10.10
2019-04-30T02:13:49.210Z,10.00
2019-04-30T02:16:20.739Z,10.10
2019-04-30T02:18:49.501Z,10.20
2019-04-30T02:21:19.485Z,10.10
2019-04-30T02:23:49.355Z,10.10
2019-04-30T02:26:18.757Z,10.10
2019-04-30T02:28:49.344Z,10.10
2019-04-30T02:31:19.481Z,10.20
2019-04-30T02:33:50.253Z,10.20
2019-04-30T02:36:30.867Z,10.20
2019-04-30T02:39:02.586Z,10.10
2019-04-30T02:41:29.539Z,10.10
2019-04-30T02:43:59.851Z,10.10
2019-04-30T02:46:32.342Z,10.20
2019-04-30T02:48:59.992Z,10.10
2019-04-30T02:51:30.032Z,10.10
2019-04-30T02:54:15.800Z,10.20
2019-04-30T02:56:46.706Z,10.10
2019-04-30T02:59:14.963Z,10.00
2019-04-30T03:01:43.256Z,10.00
2019-04-30T03:04:11.825Z,10.00
2019-04-30T03:06:40.583Z,10.00
2019-04-30T03:09:10.296Z,10.00
2019-04-30T03:11:40.575Z,9.90
2019-04-30T03:14:10.318Z,9.80
2019-04-30T03:17:00.240Z,9.80
2019-04-30T03:19:36.640Z,9.90
2019-04-30T03:22:10.528Z,9.80
2019-04-30T03:24:42.196Z,9.80
2019-04-30T03:27:09.641Z,9.90
2019-04-30T03:29:40.478Z,9.90
2019-04-30T03:32:12.956Z,9.80
2019-04-30T03:34:42.116Z,9.80
2019-04-30T03:37:09.930Z,9.80
2019-04-30T03:39:40.029Z,9.80
2019-04-30T03:42:10.026Z,9.80
2019-04-30T03:44:40.203Z,9.80
2019-04-30T03:47:10.946Z,9.80
2019-04-30T03:49:40.230Z,9.80
2019-04-30T03:52:12.569Z,9.70
2019-04-30T03:54:40.904Z,9.70
2019-04-30T03:57:10.687Z,9.70
2019-04-30T03:59:39.767Z,9.70
2019-04-30T04:02:26.442Z,9.70
2019-04-30T04:05:13.008Z,9.60
2019-04-30T04:07:46.182Z,9.60
2019-04-30T04:10:36.608Z,9.60
2019-04-30T04:13:04.943Z,9.50
2019-04-30T04:15:33.363Z,9.50
2019-04-30T04:18:01.859Z,9.50
2019-04-30T04:20:30.204Z,9.30
2019-04-30T04:22:59.863Z,9.30
2019-04-30T04:25:29.920Z,9.30
2019-04-30T04:28:00.396Z,9.30
2019-04-30T04:30:29.750Z,9.20
2019-04-30T04:32:59.955Z,9.20
2019-04-30T04:35:29.933Z,9.20
2019-04-30T04:38:00.353Z,9.20
2019-04-30T04:40:30.270Z,9.20
2019-04-30T04:43:01.166Z,9.20
2019-04-30T04:45:30.586Z,9.20
2019-04-30T04:48:00.009Z,9.10
2019-04-30T04:50:30.306Z,9.10
2019-04-30T04:52:59.435Z,9.10
2019-04-30T04:55:29.888Z,9.10
2019-04-30T04:57:59.840Z,9.10
2019-04-30T05:00:29.796Z,9.10
2019-04-30T05:03:09.341Z,9.00
2019-04-30T05:05:37.180Z,9.00
2019-04-30T05:08:05.449Z,9.20
2019-04-30T05:10:33.758Z,9.20
2019-04-30T05:13:02.107Z,9.30
2019-04-30T05:15:30.393Z,9.40
2019-04-30T05:17:59.248Z,9.40
2019-04-30T05:20:29.194Z,9.40
2019-04-30T05:22:58.502Z,9.50
2019-04-30T05:25:27.203Z,9.70
2019-04-30T05:27:55.569Z,9.80
2019-04-30T05:30:25.048Z,9.90
2019-04-30T05:32:53.374Z,9.80
2019-04-30T05:35:22.125Z,9.80
2019-04-30T05:37:50.649Z,9.70
2019-04-30T05:40:19.119Z,9.80
2019-04-30T05:42:49.609Z,9.90
2019-04-30T05:45:19.264Z,10.10
2019-04-30T05:47:50.241Z,10.10
2019-04-30T05:50:19.795Z,10.10
2019-04-30T05:52:49.284Z,10.10
2019-04-30T05:55:19.700Z,10.30
2019-04-30T05:57:55.980Z,10.30
2019-04-30T06:00:19.141Z,10.40
2019-04-30T06:02:49.838Z,10.40
2019-04-30T06:05:18.763Z,10.50
2019-04-30T06:07:51.680Z,10.60
2019-04-30T06:10:49.228Z,10.50
2019-04-30T06:13:28.764Z,10.50
2019-04-30T06:16:09.010Z,10.50
2019-04-30T06:18:38.569Z,10.50
2019-04-30T06:21:06.918Z,10.50
2019-04-30T06:23:35.397Z,10.60
2019-04-30T06:26:09.551Z,10.50
2019-04-30T06:28:33.902Z,10.60
2019-04-30T06:31:02.358Z,10.60
2019-04-30T06:33:30.700Z,10.70
2019-04-30T06:35:59.093Z,10.90
2019-04-30T06:38:29.043Z,10.80
2019-04-30T06:40:58.878Z,10.70
2019-04-30T06:43:28.710Z,10.60
2019-04-30T06:45:58.959Z,10.60
2019-04-30T06:48:29.554Z,10.80
2019-04-30T06:50:59.217Z,10.90
2019-04-30T06:53:29.784Z,10.80
2019-04-30T06:55:58.981Z,11.00
2019-04-30T06:58:29.131Z,10.90
2019-04-30T07:00:59.609Z,10.90
2019-04-30T07:03:29.090Z,10.80
2019-04-30T07:05:58.639Z,10.80
2019-04-30T07:08:55.900Z,10.90
2019-04-30T07:11:40.431Z,11.10
2019-04-30T07:14:09.697Z,11.10
2019-04-30T07:16:39.705Z,11.00
2019-04-30T07:19:09.326Z,10.90
2019-04-30T07:21:42.692Z,10.90
2019-04-30T07:24:09.417Z,10.90
2019-04-30T07:26:38.946Z,11.10
2019-04-30T07:29:09.526Z,11.30
2019-04-30T07:31:39.304Z,11.40
2019-04-30T07:34:09.298Z,11.50
2019-04-30T07:36:46.807Z,11.50
2019-04-30T07:39:09.987Z,11.40
2019-04-30T07:41:40.050Z,11.20
2019-04-30T07:44:10.753Z,11.20
2019-04-30T07:46:41.201Z,11.10
2019-04-30T07:49:10.038Z,11.20
2019-04-30T07:51:41.046Z,11.30
2019-04-30T07:54:09.210Z,11.30
2019-04-30T07:56:41.297Z,11.30
2019-04-30T07:59:10.866Z,11.00
2019-04-30T08:01:59.613Z,11.10
2019-04-30T08:04:25.989Z,11.20
2019-04-30T08:06:54.848Z,11.40
2019-04-30T08:09:23.238Z,11.40
2019-04-30T08:11:51.609Z,11.70
2019-04-30T08:14:21.215Z,11.80
2019-04-30T08:16:51.105Z,11.80
2019-04-30T08:19:19.612Z,12.10
2019-04-30T08:21:48.579Z,12.50
2019-04-30T08:24:19.305Z,12.50
2019-04-30T08:26:49.344Z,12.40
2019-04-30T08:29:19.409Z,12.30
2019-04-30T08:31:48.984Z,12.00
2019-04-30T08:34:17.534Z,11.80
2019-04-30T08:36:45.841Z,11.90
2019-04-30T08:39:14.122Z,12.00
2019-04-30T08:41:42.408Z,12.10
2019-04-30T08:44:10.802Z,12.20
2019-04-30T08:46:39.095Z,12.30
2019-04-30T08:49:09.369Z,12.40
2019-04-30T08:51:38.789Z,12.40
2019-04-30T08:54:09.477Z,12.40
2019-04-30T08:56:38.808Z,12.50
2019-04-30T08:59:10.875Z,12.60
2019-04-30T09:01:38.725Z,12.50
2019-04-30T09:04:07.673Z,12.50
2019-04-30T09:06:36.252Z,12.60
2019-04-30T09:09:20.770Z,12.80
2019-04-30T09:11:55.180Z,13.00
2019-04-30T09:14:19.183Z,13.30
2019-04-30T09:16:49.524Z,13.20
2019-04-30T09:19:21.044Z,13.00
2019-04-30T09:21:48.847Z,12.80
2019-04-30T09:24:19.044Z,12.70
2019-04-30T09:26:49.208Z,12.50
2019-04-30T09:29:19.017Z,12.70
2019-04-30T09:31:49.284Z,12.70
2019-04-30T09:34:20.657Z,12.80
2019-04-30T09:36:48.986Z,12.70
2019-04-30T09:39:19.514Z,12.60
2019-04-30T09:41:49.576Z,12.70
2019-04-30T09:44:19.499Z,12.60
2019-04-30T09:46:48.888Z,12.80
2019-04-30T09:49:19.347Z,12.80
2019-04-30T09:51:49.607Z,13.00
2019-04-30T09:54:19.681Z,12.90
2019-04-30T09:56:49.622Z,13.00
2019-04-30T09:59:18.975Z,13.20
2019-04-30T10:01:47.875Z,13.40
2019-04-30T10:04:16.615Z,13.20
2019-04-30T10:06:45.162Z,13.40
2019-04-30T10:09:15.227Z,13.50
2019-04-30T10:12:02.550Z,13.70
2019-04-30T10:14:30.927Z,13.90
2019-04-30T10:17:09.528Z,14.10
2019-04-30T10:19:39.347Z,14.20
2019-04-30T10:22:08.958Z,14.20
2019-04-30T10:24:39.208Z,14.30
2019-04-30T10:27:13.070Z,14.30
2019-04-30T10:29:39.509Z,14.20
2019-04-30T10:32:08.806Z,14.10
2019-04-30T10:34:37.225Z,14.10
2019-04-30T10:37:06.147Z,14.10
2019-04-30T10:39:34.438Z,14.20
2019-04-30T10:42:02.774Z,14.20
2019-04-30T10:44:31.189Z,14.10
2019-04-30T10:46:59.744Z,14.00
2019-04-30T10:49:29.196Z,14.20
2019-04-30T10:52:00.748Z,14.30
2019-04-30T10:54:28.932Z,14.40
2019-04-30T10:56:59.109Z,14.40
2019-04-30T10:59:28.010Z,14.40
2019-04-30T11:01:59.095Z,14.50
2019-04-30T11:04:29.453Z,14.60
2019-04-30T11:07:00.038Z,14.50
2019-04-30T11:09:29.311Z,14.60
2019-04-30T11:11:59.437Z,14.70
2019-04-30T11:14:29.148Z,14.60
2019-04-30T11:17:00.051Z,14.50
2019-04-30T11:19:29.334Z,14.20
2019-04-30T11:22:00.163Z,14.30
2019-04-30T11:24:36.600Z,14.50
2019-04-30T11:27:00.308Z,14.50
2019-04-30T11:29:30.979Z,14.60
2019-04-30T11:32:08.991Z,14.80
2019-04-30T11:34:37.490Z,14.80
2019-04-30T11:37:05.897Z,14.80
2019-04-30T11:39:34.184Z,14.60
2019-04-30T11:42:02.489Z,14.90
2019-04-30T11:44:31.693Z,15.00
2019-04-30T11:47:12.167Z,14.90
2019-04-30T11:49:40.694Z,15.00
2019-04-30T11:52:08.975Z,14.80
2019-04-30T11:54:48.688Z,14.80
2019-04-30T11:57:08.889Z,14.90
2019-04-30T11:59:39.453Z,15.10
2019-04-30T12:02:29.316Z,15.20
2019-04-30T12:04:57.835Z,15.10
2019-04-30T12:07:57.242Z,15.20
2019-04-30T12:10:43.684Z,15.40
2019-04-30T12:13:31.037Z,15.10
2019-04-30T12:15:59.300Z,15.30
2019-04-30T12:18:27.723Z,15.40
2019-04-30T12:20:56.283Z,15.60
2019-04-30T12:23:24.561Z,15.70
2019-04-30T12:25:52.911Z,15.60
2019-04-30T12:28:21.274Z,15.60
2019-04-30T12:30:50.008Z,15.70
2019-04-30T12:33:19.216Z,15.60
2019-04-30T12:35:49.217Z,15.70
2019-04-30T12:38:19.212Z,15.70
2019-04-30T12:40:47.978Z,15.70
2019-04-30T12:43:16.368Z,15.70
2019-04-30T12:45:44.771Z,15.80
2019-04-30T12:48:20.290Z,15.70
2019-04-30T12:50:59.047Z,15.50
2019-04-30T12:53:34.219Z,15.70
2019-04-30T12:56:09.169Z,15.90
2019-04-30T12:58:37.505Z,16.00
2019-04-30T13:01:06.116Z,16.20
2019-04-30T13:03:34.570Z,16.30
2019-04-30T13:06:05.791Z,16.10
2019-04-30T13:08:35.695Z,16.20
2019-04-30T13:11:04.940Z,16.30
2019-04-30T13:13:36.420Z,16.30
2019-04-30T13:16:05.263Z,16.30
2019-04-30T13:18:33.656Z,16.30
2019-04-30T13:21:02.065Z,16.20
2019-04-30T13:23:30.660Z,16.40
2019-04-30T13:26:01.047Z,16.40
2019-04-30T13:28:30.817Z,16.30
2019-04-30T13:30:59.352Z,16.20
2019-04-30T13:33:38.917Z,16.40
2019-04-30T13:36:08.632Z,16.60
2019-04-30T13:38:59.493Z,16.70
2019-04-30T13:41:39.731Z,16.70
2019-04-30T13:44:13.962Z,16.80
2019-04-30T13:46:43.183Z,16.90
2019-04-30T13:49:13.021Z,16.80
2019-04-30T13:51:42.968Z,16.70
2019-04-30T13:54:11.559Z,16.70
2019-04-30T13:56:40.007Z,16.80
2019-04-30T13:59:08.456Z,16.60
2019-04-30T14:01:38.949Z,16.50
2019-04-30T14:04:34.643Z,16.20
2019-04-30T14:07:22.154Z,16.30
2019-04-30T14:09:52.441Z,16.50
2019-04-30T14:12:23.310Z,16.90
2019-04-30T14:14:51.662Z,17.10
2019-04-30T14:17:21.478Z,16.90
2019-04-30T14:19:50.097Z,16.80
2019-04-30T14:22:18.399Z,16.80
2019-04-30T14:24:46.749Z,16.90
2019-04-30T14:27:15.384Z,16.70
2019-04-30T14:29:43.667Z,16.70
2019-04-30T14:32:12.216Z,16.70
2019-04-30T14:34:40.575Z,16.80
2019-04-30T14:37:08.905Z,16.70
2019-04-30T14:39:37.893Z,16.60
2019-04-30T14:42:10.084Z,16.50
2019-04-30T14:44:37.440Z,16.50
2019-04-30T14:47:14.598Z,16.60
2019-04-30T14:50:05.549Z,16.70
2019-04-30T14:52:40.231Z,16.80
2019-04-30T14:55:35.206Z,16.70
2019-04-30T14:58:39.311Z,16.70
2019-04-30T15:01:32.317Z,16.80
2019-04-30T15:04:01.214Z,16.80
2019-04-30T15:06:29.593Z,16.70
2019-04-30T15:08:59.146Z,16.60
2019-04-30T15:11:28.876Z,16.80
2019-04-30T15:13:59.166Z,16.90
2019-04-30T15:16:27.876Z,16.90
2019-04-30T15:18:56.258Z,17.00
2019-04-30T15:21:24.650Z,16.90
2019-04-30T15:24:01.701Z,16.90
2019-04-30T15:26:30.239Z,16.90
2019-04-30T15:29:00.029Z,16.70
2019-04-30T15:31:29.651Z,16.80
2019-04-30T15:34:11.021Z,16.90
2019-04-30T15:36:41.817Z,16.90
2019-04-30T15:39:30.593Z,17.00
2019-04-30T15:41:58.387Z,17.00
2019-04-30T15:44:26.833Z,17.00
2019-04-30T15:46:55.207Z,16.90
2019-04-30T15:49:23.688Z,16.80
2019-04-30T15:51:52.226Z,16.80
2019-04-30T15:54:21.122Z,16.80
2019-04-30T15:56:49.798Z,16.90
2019-04-30T15:59:35.815Z,16.90
2019-04-30T16:02:29.427Z,16.90
2019-04-30T16:05:22.518Z,16.90
2019-04-30T16:08:15.688Z,16.90
2019-04-30T16:11:00.613Z,16.80
2019-04-30T16:13:31.815Z,16.90
2019-04-30T16:16:01.104Z,17.00
2019-04-30T16:18:36.246Z,17.10
2019-04-30T16:21:05.155Z,17.10
2019-04-30T16:23:33.502Z,17.10
2019-04-30T16:26:02.248Z,17.10
2019-04-30T16:28:30.688Z,17.20
2019-04-30T16:30:59.088Z,17.10
2019-04-30T16:33:29.355Z,17.10
2019-04-30T16:35:58.990Z,17.20
2019-04-30T16:38:28.998Z,17.20
2019-04-30T16:40:58.479Z,17.20
2019-04-30T16:43:29.291Z,17.20
2019-04-30T16:45:58.893Z,17.10
2019-04-30T16:48:28.866Z,17.00
2019-04-30T16:50:58.667Z,17.00
2019-04-30T16:53:27.289Z,16.90
2019-04-30T16:55:55.651Z,16.90
2019-04-30T16:58:24.075Z,16.90
2019-04-30T17:00:52.458Z,17.00
2019-04-30T17:03:28.998Z,16.90
2019-04-30T17:06:02.839Z,16.90
2019-04-30T17:08:42.668Z,17.00
2019-04-30T17:11:30.283Z,16.90
2019-04-30T17:14:01.989Z,16.90
2019-04-30T17:16:30.472Z,17.00
2019-04-30T17:18:59.114Z,16.80
2019-04-30T17:21:29.664Z,16.80
2019-04-30T17:23:58.752Z,16.90
2019-04-30T17:26:27.521Z,16.90
2019-04-30T17:28:55.889Z,16.90
2019-04-30T17:31:24.321Z,16.90
2019-04-30T17:33:52.820Z,16.90
2019-04-30T17:36:21.262Z,16.80
2019-04-30T17:38:49.671Z,16.80
2019-04-30T17:41:18.403Z,16.60
2019-04-30T17:43:49.457Z,16.50
2019-04-30T17:46:19.965Z,16.40
2019-04-30T17:48:49.523Z,16.30
2019-04-30T17:51:22.606Z,16.20
2019-04-30T17:54:09.717Z,16.20
2019-04-30T17:56:40.287Z,16.10
2019-04-30T17:59:09.208Z,16.10
2019-04-30T18:01:40.081Z,16.10
2019-04-30T18:04:08.833Z,16.10
2019-04-30T18:06:37.399Z,16.10
2019-04-30T18:09:06.886Z,16.00
2019-04-30T18:11:35.402Z,16.00
2019-04-30T18:14:05.032Z,16.00
2019-04-30T18:16:33.718Z,16.00
2019-04-30T18:19:14.344Z,15.90
2019-04-30T18:21:50.105Z,15.80
2019-04-30T18:24:33.224Z,15.70
2019-04-30T18:27:10.615Z,15.70
2019-04-30T18:29:39.162Z,15.70
2019-04-30T18:32:09.269Z,15.50
2019-04-30T18:34:39.118Z,15.50
2019-04-30T18:37:08.978Z,15.50
2019-04-30T18:39:38.032Z,15.40
2019-04-30T18:42:06.569Z,15.40
2019-04-30T18:44:35.208Z,15.30
2019-04-30T18:47:03.622Z,15.30
2019-04-30T18:49:32.093Z,15.20
2019-04-30T18:52:00.697Z,15.20
2019-04-30T18:54:30.495Z,15.10
2019-04-30T18:57:00.212Z,15.10
2019-04-30T18:59:32.532Z,15.10
2019-04-30T19:01:59.882Z,15.00
2019-04-30T19:04:29.506Z,14.90
2019-04-30T19:07:02.170Z,14.90
2019-04-30T19:09:45.037Z,14.70
2019-04-30T19:12:32.528Z,14.60
2019-04-30T19:15:20.409Z,14.70
2019-04-30T19:18:18.397Z,14.60
2019-04-30T19:20:54.757Z,14.60
2019-04-30T19:23:23.582Z,14.50
2019-04-30T19:25:52.077Z,14.40
2019-04-30T19:28:20.459Z,14.30
2019-04-30T19:30:57.908Z,14.20
2019-04-30T19:33:20.418Z,14.10
2019-04-30T19:35:51.000Z,14.00
2019-04-30T19:38:23.240Z,14.00
2019-04-30T19:40:53.399Z,13.90
2019-04-30T19:43:23.608Z,13.80
2019-04-30T19:45:55.530Z,13.70
2019-04-30T19:48:26.057Z,13.60
2019-04-30T19:50:59.278Z,13.60
2019-04-30T19:53:30.344Z,13.50
2019-04-30T19:56:00.038Z,13.60
2019-04-30T19:58:47.672Z,13.50
2019-04-30T20:01:01.724Z,13.50
2019-04-30T20:03:33.790Z,13.50
2019-04-30T20:06:03.386Z,13.30
2019-04-30T20:08:34.394Z,13.20
2019-04-30T20:11:04.579Z,13.10
2019-04-30T20:13:37.230Z,13.00
2019-04-30T20:16:07.049Z,13.00
2019-04-30T20:18:39.260Z,13.00
2019-04-30T20:21:12.187Z,12.90
2019-04-30T20:23:43.467Z,12.90
2019-04-30T20:26:13.259Z,12.80
2019-04-30T20:28:45.976Z,12.70
2019-04-30T20:31:18.921Z,12.50
2019-04-30T20:33:48.918Z,12.40
2019-04-30T20:36:19.132Z,12.30
2019-04-30T20:39:18.610Z,12.30
2019-04-30T20:41:48.122Z,12.20
2019-04-30T20:44:18.980Z,12.30
2019-04-30T20:46:59.032Z,12.30
2019-04-30T20:49:29.132Z,12.20
2019-04-30T20:51:59.038Z,12.10
2019-04-30T20:54:29.071Z,12.00
2019-04-30T20:56:59.025Z,11.80
2019-04-30T20:59:28.997Z,11.80
2019-04-30T21:01:58.268Z,11.70
2019-04-30T21:04:26.977Z,11.70
2019-04-30T21:06:55.495Z,11.70
2019-04-30T21:09:23.898Z,11.60
2019-04-30T21:11:53.530Z,11.50
2019-04-30T21:14:21.851Z,11.40
2019-04-30T21:16:50.395Z,11.40
2019-04-30T21:19:19.025Z,11.30
2019-04-30T21:21:49.742Z,11.20
2019-04-30T21:24:18.319Z,11.20
2019-04-30T21:26:46.717Z,11.20
2019-04-30T21:29:16.050Z,11.20
2019-04-30T21:32:02.260Z,11.10
2019-04-30T21:34:43.733Z,11.00
2019-04-30T21:37:12.114Z,10.90
2019-04-30T21:39:40.498Z,10.70
2019-04-30T21:42:09.285Z,10.70
2019-04-30T21:44:38.373Z,10.60
2019-04-30T21:47:06.690Z,10.50
2019-04-30T21:49:35.088Z,10.40
2019-04-30T21:52:03.710Z,10.30
2019-04-30T21:54:32.115Z,10.30
2019-04-30T21:57:00.636Z,10.20
2019-04-30T21:59:30.441Z,10.20
2019-04-30T22:01:59.088Z,10.20
2019-04-30T22:04:27.428Z,10.20
2019-04-30T22:06:56.077Z,10.10
2019-04-30T22:09:24.543Z,10.10
2019-04-30T22:11:52.930Z,10.10
2019-04-30T22:14:21.263Z,10.10
2019-04-30T22:16:49.586Z,10.00
2019-04-30T22:19:18.205Z,9.90
2019-04-30T22:21:46.623Z,9.80
2019-04-30T22:24:15.146Z,9.70
2019-04-30T22:26:43.538Z,9.70
2019-04-30T22:29:11.982Z,9.70
2019-04-30T22:31:42.064Z,9.60
2019-04-30T22:34:10.413Z,9.60
2019-04-30T22:36:48.846Z,9.60
2019-04-30T22:39:35.146Z,9.50
2019-04-30T22:42:21.146Z,9.30
2019-04-30T22:44:49.548Z,9.30
2019-04-30T22:47:18.176Z,9.20
2019-04-30T22:49:46.820Z,9.10
2019-04-30T22:52:15.142Z,9.10
2019-04-30T22:54:43.524Z,9.00
2019-04-30T22:57:12.183Z,9.00
2019-04-30T22:59:49.785Z,9.00
2019-04-30T23:02:27.492Z,9.00
2019-04-30T23:04:56.366Z,8.90
2019-04-30T23:07:24.791Z,8.90
2019-04-30T23:09:53.238Z,8.90
2019-04-30T23:12:21.667Z,8.80
2019-04-30T23:14:49.990Z,8.80
2019-04-30T23:17:18.498Z,8.70
2019-04-30T23:19:49.568Z,8.60
2019-04-30T23:22:16.896Z,8.50
2019-04-30T23:24:45.160Z,8.50
2019-04-30T23:27:13.478Z,8.50
2019-04-30T23:29:43.703Z,8.40
2019-04-30T23:32:13.558Z,8.30
2019-04-30T23:34:42.289Z,8.40
2019-04-30T23:37:11.034Z,8.30
2019-04-30T23:39:39.345Z,8.30
2019-04-30T23:42:07.825Z,8.30
2019-04-30T23:44:37.182Z,8.20
2019-04-30T23:47:05.491Z,8.20
2019-04-30T23:49:33.862Z,8.20
2019-04-30T23:52:02.243Z,8.10
2019-04-30T23:54:30.571Z,8.10
2019-04-30T23:57:01.271Z,8.10
2019-04-30T23:59:29.524Z,8.20
